sensor_id;sensor_type;location;lat;lon;timestamp;temperature;humidity
42819;DHT22;30249;51.426;0.102;2022-07-30T00:00:50;18.90;88.80
42819;DHT22;30249;51.426;0.102;2022-07-30T00:03:18;18.90;89.50
42819;DHT22;30249;51.426;0.102;2022-07-30T00:05:46;18.90;89.70
42819;DHT22;30249;51.426;0.102;2022-07-30T00:08:14;18.80;89.40
42819;DHT22;30249;51.426;0.102;2022-07-30T00:10:42;18.70;89.30
42819;DHT22;30249;51.426;0.102;2022-07-30T00:13:12;18.60;90.30
42819;DHT22;30249;51.426;0.102;2022-07-30T00:15:40;18.50;89.40
42819;DHT22;30249;51.426;0.102;2022-07-30T00:18:08;18.40;90.20
42819;DHT22;30249;51.426;0.102;2022-07-30T00:20:38;18.40;90.30
42819;DHT22;30249;51.426;0.102;2022-07-30T00:23:10;18.30;90.50
42819;DHT22;30249;51.426;0.102;2022-07-30T00:25:38;18.30;90.50
42819;DHT22;30249;51.426;0.102;2022-07-30T00:28:05;18.90;90.50
42819;DHT22;30249;51.426;0.102;2022-07-30T00:30:33;18.30;90.50
42819;DHT22;30249;51.426;0.102;2022-07-30T00:33:00;18.20;90.50
42819;DHT22;30249;51.426;0.102;2022-07-30T00:35:28;18.20;90.40
42819;DHT22;30249;51.426;0.102;2022-07-30T00:37:56;18.20;90.60
42819;DHT22;30249;51.426;0.102;2022-07-30T00:40:23;18.20;90.80
42819;DHT22;30249;51.426;0.102;2022-07-30T00:42:51;18.10;90.80
42819;DHT22;30249;51.426;0.102;2022-07-30T00:45:19;18.20;90.80
42819;DHT22;30249;51.426;0.102;2022-07-30T00:47:47;18.20;90.90
42819;DHT22;30249;51.426;0.102;2022-07-30T00:50:16;18.30;90.70
42819;DHT22;30249;51.426;0.102;2022-07-30T00:52:44;18.30;90.70
42819;DHT22;30249;51.426;0.102;2022-07-30T00:55:13;18.30;90.60
42819;DHT22;30249;51.426;0.102;2022-07-30T00:57:41;18.10;90.80
42819;DHT22;30249;51.426;0.102;2022-07-30T01:00:14;18.30;90.90
42819;DHT22;30249;51.426;0.102;2022-07-30T01:02:42;18.20;90.80
42819;DHT22;30249;51.426;0.102;2022-07-30T01:05:10;18.20;90.80
42819;DHT22;30249;51.426;0.102;2022-07-30T01:07:40;18.10;90.90
42819;DHT22;30249;51.426;0.102;2022-07-30T01:10:09;18.10;91.00
42819;DHT22;30249;51.426;0.102;2022-07-30T01:12:37;18.10;91.00
42819;DHT22;30249;51.426;0.102;2022-07-30T01:15:06;18.10;90.90
42819;DHT22;30249;51.426;0.102;2022-07-30T01:17:34;18.10;90.80
42819;DHT22;30249;51.426;0.102;2022-07-30T01:20:06;18.10;90.70
42819;DHT22;30249;51.426;0.102;2022-07-30T01:27:59;18.20;90.10
42819;DHT22;30249;51.426;0.102;2022-07-30T01:30:30;18.20;90.00
42819;DHT22;30249;51.426;0.102;2022-07-30T01:33:01;18.20;88.90
42819;DHT22;30249;51.426;0.102;2022-07-30T01:35:29;18.20;88.60
42819;DHT22;30249;51.426;0.102;2022-07-30T01:37:58;18.10;87.50
42819;DHT22;30249;51.426;0.102;2022-07-30T01:40:28;18.20;87.10
42819;DHT22;30249;51.426;0.102;2022-07-30T01:42:57;18.20;87.50
42819;DHT22;30249;51.426;0.102;2022-07-30T01:45:27;18.30;87.30
42819;DHT22;30249;51.426;0.102;2022-07-30T01:47:57;18.30;86.90
42819;DHT22;30249;51.426;0.102;2022-07-30T01:50:25;18.30;86.90
42819;DHT22;30249;51.426;0.102;2022-07-30T01:52:54;18.40;86.60
42819;DHT22;30249;51.426;0.102;2022-07-30T01:55:33;18.40;86.80
42819;DHT22;30249;51.426;0.102;2022-07-30T01:58:05;18.40;86.40
42819;DHT22;30249;51.426;0.102;2022-07-30T02:00:38;18.40;86.60
42819;DHT22;30249;51.426;0.102;2022-07-30T02:03:06;18.50;86.40
42819;DHT22;30249;51.426;0.102;2022-07-30T02:05:35;18.50;86.50
42819;DHT22;30249;51.426;0.102;2022-07-30T02:08:10;18.50;86.40
42819;DHT22;30249;51.426;0.102;2022-07-30T02:10:44;18.50;86.50
42819;DHT22;30249;51.426;0.102;2022-07-30T02:13:20;18.50;86.80
42819;DHT22;30249;51.426;0.102;2022-07-30T02:18:19;18.20;86.70
42819;DHT22;30249;51.426;0.102;2022-07-30T02:20:58;18.40;87.40
42819;DHT22;30249;51.426;0.102;2022-07-30T02:23:28;18.40;87.00
42819;DHT22;30249;51.426;0.102;2022-07-30T02:25:57;18.40;87.40
42819;DHT22;30249;51.426;0.102;2022-07-30T02:28:27;18.40;87.80
42819;DHT22;30249;51.426;0.102;2022-07-30T02:30:58;18.70;88.00
42819;DHT22;30249;51.426;0.102;2022-07-30T02:33:28;18.30;88.00
42819;DHT22;30249;51.426;0.102;2022-07-30T02:35:59;18.30;87.90
42819;DHT22;30249;51.426;0.102;2022-07-30T02:38:28;18.20;88.60
42819;DHT22;30249;51.426;0.102;2022-07-30T02:40:58;18.20;88.50
42819;DHT22;30249;51.426;0.102;2022-07-30T02:43:26;18.20;88.60
42819;DHT22;30249;51.426;0.102;2022-07-30T02:46:03;18.20;88.80
42819;DHT22;30249;51.426;0.102;2022-07-30T02:48:52;19.60;89.80
42819;DHT22;30249;51.426;0.102;2022-07-30T02:51:20;18.10;89.20
42819;DHT22;30249;51.426;0.102;2022-07-30T02:53:48;18.10;89.50
42819;DHT22;30249;51.426;0.102;2022-07-30T02:56:20;18.10;89.60
42819;DHT22;30249;51.426;0.102;2022-07-30T02:58:48;18.10;89.70
42819;DHT22;30249;51.426;0.102;2022-07-30T03:01:20;18.00;89.80
42819;DHT22;30249;51.426;0.102;2022-07-30T03:03:47;18.00;89.60
42819;DHT22;30249;51.426;0.102;2022-07-30T03:06:16;18.00;89.70
42819;DHT22;30249;51.426;0.102;2022-07-30T03:08:44;17.90;90.00
42819;DHT22;30249;51.426;0.102;2022-07-30T03:11:12;17.90;90.00
42819;DHT22;30249;51.426;0.102;2022-07-30T03:13:40;18.00;90.10
42819;DHT22;30249;51.426;0.102;2022-07-30T03:16:09;17.90;90.10
42819;DHT22;30249;51.426;0.102;2022-07-30T03:18:37;18.00;90.20
42819;DHT22;30249;51.426;0.102;2022-07-30T03:21:06;17.80;90.20
42819;DHT22;30249;51.426;0.102;2022-07-30T03:23:34;17.80;90.30
42819;DHT22;30249;51.426;0.102;2022-07-30T03:26:04;17.80;90.20
42819;DHT22;30249;51.426;0.102;2022-07-30T03:28:38;17.70;90.20
42819;DHT22;30249;51.426;0.102;2022-07-30T03:31:06;17.80;90.50
42819;DHT22;30249;51.426;0.102;2022-07-30T03:33:34;17.70;90.40
42819;DHT22;30249;51.426;0.102;2022-07-30T03:36:05;17.70;90.60
42819;DHT22;30249;51.426;0.102;2022-07-30T03:38:35;17.70;90.50
42819;DHT22;30249;51.426;0.102;2022-07-30T03:41:03;17.70;90.60
42819;DHT22;30249;51.426;0.102;2022-07-30T03:43:32;17.60;90.60
42819;DHT22;30249;51.426;0.102;2022-07-30T03:46:01;17.60;90.60
42819;DHT22;30249;51.426;0.102;2022-07-30T03:48:34;17.60;90.70
42819;DHT22;30249;51.426;0.102;2022-07-30T03:51:04;17.50;90.80
42819;DHT22;30249;51.426;0.102;2022-07-30T03:53:33;17.50;90.70
42819;DHT22;30249;51.426;0.102;2022-07-30T03:56:23;17.60;90.80
42819;DHT22;30249;51.426;0.102;2022-07-30T03:59:14;17.40;90.90
42819;DHT22;30249;51.426;0.102;2022-07-30T04:01:43;17.40;90.90
42819;DHT22;30249;51.426;0.102;2022-07-30T04:04:31;17.40;90.90
42819;DHT22;30249;51.426;0.102;2022-07-30T04:06:58;17.40;91.00
42819;DHT22;30249;51.426;0.102;2022-07-30T04:09:28;17.30;91.20
42819;DHT22;30249;51.426;0.102;2022-07-30T04:12:03;17.30;91.10
42819;DHT22;30249;51.426;0.102;2022-07-30T04:14:40;17.40;91.10
42819;DHT22;30249;51.426;0.102;2022-07-30T04:17:52;17.20;91.00
42819;DHT22;30249;51.426;0.102;2022-07-30T04:20:46;17.20;91.20
42819;DHT22;30249;51.426;0.102;2022-07-30T04:22:54;17.20;91.10
42819;DHT22;30249;51.426;0.102;2022-07-30T04:25:23;17.20;91.30
42819;DHT22;30249;51.426;0.102;2022-07-30T04:27:51;17.20;91.30
42819;DHT22;30249;51.426;0.102;2022-07-30T04:30:31;17.10;91.30
42819;DHT22;30249;51.426;0.102;2022-07-30T04:33:01;17.10;91.30
42819;DHT22;30249;51.426;0.102;2022-07-30T04:35:56;17.10;91.40
42819;DHT22;30249;51.426;0.102;2022-07-30T04:38:30;17.00;91.60
42819;DHT22;30249;51.426;0.102;2022-07-30T04:41:02;17.00;91.50
42819;DHT22;30249;51.426;0.102;2022-07-30T04:43:53;17.00;91.60
42819;DHT22;30249;51.426;0.102;2022-07-30T04:46:21;17.00;91.60
42819;DHT22;30249;51.426;0.102;2022-07-30T04:48:51;16.90;91.70
42819;DHT22;30249;51.426;0.102;2022-07-30T04:51:31;16.90;91.80
42819;DHT22;30249;51.426;0.102;2022-07-30T04:54:01;16.90;91.80
42819;DHT22;30249;51.426;0.102;2022-07-30T04:56:30;16.90;91.90
42819;DHT22;30249;51.426;0.102;2022-07-30T04:59:00;16.90;92.10
42819;DHT22;30249;51.426;0.102;2022-07-30T05:01:38;16.90;92.00
42819;DHT22;30249;51.426;0.102;2022-07-30T05:04:08;17.00;92.10
42819;DHT22;30249;51.426;0.102;2022-07-30T05:06:36;17.00;92.10
42819;DHT22;30249;51.426;0.102;2022-07-30T05:09:04;17.00;92.00
42819;DHT22;30249;51.426;0.102;2022-07-30T05:11:33;17.10;92.10
42819;DHT22;30249;51.426;0.102;2022-07-30T05:14:01;17.10;92.10
42819;DHT22;30249;51.426;0.102;2022-07-30T05:16:28;17.10;92.00
42819;DHT22;30249;51.426;0.102;2022-07-30T05:18:58;16.80;92.00
42819;DHT22;30249;51.426;0.102;2022-07-30T05:21:26;17.10;92.10
42819;DHT22;30249;51.426;0.102;2022-07-30T05:23:55;17.30;92.20
42819;DHT22;30249;51.426;0.102;2022-07-30T05:26:29;17.10;92.10
42819;DHT22;30249;51.426;0.102;2022-07-30T05:28:59;17.10;92.30
42819;DHT22;30249;51.426;0.102;2022-07-30T05:31:43;17.20;92.20
42819;DHT22;30249;51.426;0.102;2022-07-30T05:34:11;17.30;92.30
42819;DHT22;30249;51.426;0.102;2022-07-30T05:36:42;17.20;92.40
42819;DHT22;30249;51.426;0.102;2022-07-30T05:39:13;17.20;92.40
42819;DHT22;30249;51.426;0.102;2022-07-30T05:41:52;17.20;92.60
42819;DHT22;30249;51.426;0.102;2022-07-30T05:44:27;17.30;92.50
42819;DHT22;30249;51.426;0.102;2022-07-30T05:46:55;17.30;92.90
42819;DHT22;30249;51.426;0.102;2022-07-30T05:49:23;17.40;92.70
42819;DHT22;30249;51.426;0.102;2022-07-30T05:51:52;17.40;92.60
42819;DHT22;30249;51.426;0.102;2022-07-30T05:54:23;17.50;92.80
42819;DHT22;30249;51.426;0.102;2022-07-30T05:57:24;17.60;92.80
42819;DHT22;30249;51.426;0.102;2022-07-30T05:59:52;17.70;92.70
42819;DHT22;30249;51.426;0.102;2022-07-30T06:02:23;17.80;93.00
42819;DHT22;30249;51.426;0.102;2022-07-30T06:05:23;17.90;92.90
42819;DHT22;30249;51.426;0.102;2022-07-30T06:07:51;18.10;93.00
42819;DHT22;30249;51.426;0.102;2022-07-30T06:10:24;18.20;93.10
42819;DHT22;30249;51.426;0.102;2022-07-30T06:12:56;18.30;93.40
42819;DHT22;30249;51.426;0.102;2022-07-30T06:15:25;18.40;94.10
42819;DHT22;30249;51.426;0.102;2022-07-30T06:17:53;18.40;93.60
42819;DHT22;30249;51.426;0.102;2022-07-30T06:20:41;18.50;93.50
42819;DHT22;30249;51.426;0.102;2022-07-30T06:23:29;18.60;93.70
42819;DHT22;30249;51.426;0.102;2022-07-30T06:26:05;18.70;93.80
42819;DHT22;30249;51.426;0.102;2022-07-30T06:28:34;18.80;93.50
42819;DHT22;30249;51.426;0.102;2022-07-30T06:31:13;18.90;93.30
42819;DHT22;30249;51.426;0.102;2022-07-30T06:33:41;19.00;93.30
42819;DHT22;30249;51.426;0.102;2022-07-30T06:36:10;19.10;92.80
42819;DHT22;30249;51.426;0.102;2022-07-30T06:39:09;19.10;93.10
42819;DHT22;30249;51.426;0.102;2022-07-30T06:41:58;19.30;92.70
42819;DHT22;30249;51.426;0.102;2022-07-30T06:44:30;19.30;92.40
42819;DHT22;30249;51.426;0.102;2022-07-30T06:47:21;19.50;92.40
42819;DHT22;30249;51.426;0.102;2022-07-30T06:49:52;19.60;92.50
42819;DHT22;30249;51.426;0.102;2022-07-30T06:52:20;19.70;92.30
42819;DHT22;30249;51.426;0.102;2022-07-30T06:54:51;19.80;92.30
42819;DHT22;30249;51.426;0.102;2022-07-30T06:57:41;19.90;92.10
42819;DHT22;30249;51.426;0.102;2022-07-30T07:00:29;20.00;92.10
42819;DHT22;30249;51.426;0.102;2022-07-30T07:03:01;20.10;91.60
42819;DHT22;30249;51.426;0.102;2022-07-30T07:05:35;20.20;91.50
42819;DHT22;30249;51.426;0.102;2022-07-30T07:08:03;20.30;91.20
42819;DHT22;30249;51.426;0.102;2022-07-30T07:10:36;20.30;90.30
42819;DHT22;30249;51.426;0.102;2022-07-30T07:13:22;20.40;89.50
42819;DHT22;30249;51.426;0.102;2022-07-30T07:15:50;20.50;89.90
42819;DHT22;30249;51.426;0.102;2022-07-30T07:18:22;20.60;88.50
42819;DHT22;30249;51.426;0.102;2022-07-30T07:20:54;20.70;87.60
42819;DHT22;30249;51.426;0.102;2022-07-30T07:23:29;20.80;87.20
42819;DHT22;30249;51.426;0.102;2022-07-30T07:26:28;20.90;87.00
42819;DHT22;30249;51.426;0.102;2022-07-30T07:28:57;21.00;86.60
42819;DHT22;30249;51.426;0.102;2022-07-30T07:31:31;21.20;86.20
42819;DHT22;30249;51.426;0.102;2022-07-30T07:34:19;21.10;86.10
42819;DHT22;30249;51.426;0.102;2022-07-30T07:36:46;22.50;86.20
42819;DHT22;30249;51.426;0.102;2022-07-30T07:39:14;21.10;85.20
42819;DHT22;30249;51.426;0.102;2022-07-30T07:41:43;21.00;85.20
42819;DHT22;30249;51.426;0.102;2022-07-30T07:44:20;21.00;84.30
42819;DHT22;30249;51.426;0.102;2022-07-30T07:46:47;21.10;85.20
42819;DHT22;30249;51.426;0.102;2022-07-30T07:49:16;21.20;85.30
42819;DHT22;30249;51.426;0.102;2022-07-30T07:51:48;21.20;85.30
42819;DHT22;30249;51.426;0.102;2022-07-30T07:54:20;21.30;84.90
42819;DHT22;30249;51.426;0.102;2022-07-30T07:56:57;21.30;84.90
42819;DHT22;30249;51.426;0.102;2022-07-30T07:59:47;21.40;84.60
42819;DHT22;30249;51.426;0.102;2022-07-30T08:02:24;21.60;85.30
42819;DHT22;30249;51.426;0.102;2022-07-30T08:04:59;21.80;85.10
42819;DHT22;30249;51.426;0.102;2022-07-30T08:07:40;21.90;83.90
42819;DHT22;30249;51.426;0.102;2022-07-30T08:10:14;22.00;83.60
42819;DHT22;30249;51.426;0.102;2022-07-30T08:12:54;22.10;82.50
42819;DHT22;30249;51.426;0.102;2022-07-30T08:15:49;22.20;82.20
42819;DHT22;30249;51.426;0.102;2022-07-30T08:18:42;22.30;82.30
42819;DHT22;30249;51.426;0.102;2022-07-30T08:21:32;22.30;82.40
42819;DHT22;30249;51.426;0.102;2022-07-30T08:24:00;22.40;82.90
42819;DHT22;30249;51.426;0.102;2022-07-30T08:26:28;22.40;82.50
42819;DHT22;30249;51.426;0.102;2022-07-30T08:28:58;22.50;82.50
42819;DHT22;30249;51.426;0.102;2022-07-30T08:31:26;22.60;82.30
42819;DHT22;30249;51.426;0.102;2022-07-30T08:33:56;22.70;81.40
42819;DHT22;30249;51.426;0.102;2022-07-30T08:36:25;22.80;80.60
42819;DHT22;30249;51.426;0.102;2022-07-30T08:38:57;22.80;81.10
42819;DHT22;30249;51.426;0.102;2022-07-30T08:41:26;22.90;80.30
42819;DHT22;30249;51.426;0.102;2022-07-30T08:43:54;23.00;79.50
42819;DHT22;30249;51.426;0.102;2022-07-30T08:46:24;23.10;80.00
42819;DHT22;30249;51.426;0.102;2022-07-30T08:48:58;23.10;79.20
42819;DHT22;30249;51.426;0.102;2022-07-30T08:51:36;23.20;78.90
42819;DHT22;30249;51.426;0.102;2022-07-30T08:54:34;23.30;78.80
42819;DHT22;30249;51.426;0.102;2022-07-30T08:57:03;23.30;78.60
42819;DHT22;30249;51.426;0.102;2022-07-30T08:59:37;23.40;78.20
42819;DHT22;30249;51.426;0.102;2022-07-30T09:02:30;23.30;78.90
42819;DHT22;30249;51.426;0.102;2022-07-30T09:05:03;23.40;79.10
42819;DHT22;30249;51.426;0.102;2022-07-30T09:07:32;23.50;78.90
42819;DHT22;30249;51.426;0.102;2022-07-30T09:10:06;23.50;79.20
42819;DHT22;30249;51.426;0.102;2022-07-30T09:12:44;23.60;79.10
42819;DHT22;30249;51.426;0.102;2022-07-30T09:15:16;23.60;79.20
42819;DHT22;30249;51.426;0.102;2022-07-30T09:20:16;24.00;79.80
42819;DHT22;30249;51.426;0.102;2022-07-30T09:22:45;23.70;79.50
42819;DHT22;30249;51.426;0.102;2022-07-30T09:25:36;23.70;79.60
42819;DHT22;30249;51.426;0.102;2022-07-30T09:28:27;23.80;79.80
42819;DHT22;30249;51.426;0.102;2022-07-30T09:31:15;24.00;79.50
42819;DHT22;30249;51.426;0.102;2022-07-30T09:34:02;24.10;79.40
42819;DHT22;30249;51.426;0.102;2022-07-30T09:36:48;24.10;79.10
42819;DHT22;30249;51.426;0.102;2022-07-30T09:39:32;24.20;79.10
42819;DHT22;30249;51.426;0.102;2022-07-30T09:42:23;24.20;79.40
42819;DHT22;30249;51.426;0.102;2022-07-30T09:45:08;24.20;79.40
42819;DHT22;30249;51.426;0.102;2022-07-30T09:47:44;24.20;79.20
42819;DHT22;30249;51.426;0.102;2022-07-30T09:50:17;24.30;79.30
42819;DHT22;30249;51.426;0.102;2022-07-30T09:53:05;24.40;79.30
42819;DHT22;30249;51.426;0.102;2022-07-30T09:55:35;24.40;78.90
42819;DHT22;30249;51.426;0.102;2022-07-30T09:58:10;24.50;78.60
42819;DHT22;30249;51.426;0.102;2022-07-30T10:00:43;24.50;77.90
42819;DHT22;30249;51.426;0.102;2022-07-30T10:03:40;24.50;77.90
42819;DHT22;30249;51.426;0.102;2022-07-30T10:06:31;24.50;77.50
42819;DHT22;30249;51.426;0.102;2022-07-30T10:09:00;24.60;77.30
42819;DHT22;30249;51.426;0.102;2022-07-30T10:11:41;24.50;77.30
42819;DHT22;30249;51.426;0.102;2022-07-30T10:14:11;24.60;77.00
42819;DHT22;30249;51.426;0.102;2022-07-30T10:16:40;24.60;76.90
42819;DHT22;30249;51.426;0.102;2022-07-30T10:19:11;24.70;77.20
42819;DHT22;30249;51.426;0.102;2022-07-30T10:22:09;24.70;76.70
42819;DHT22;30249;51.426;0.102;2022-07-30T10:25:10;24.80;76.50
42819;DHT22;30249;51.426;0.102;2022-07-30T10:28:01;24.90;76.60
42819;DHT22;30249;51.426;0.102;2022-07-30T10:30:31;25.00;76.40
42819;DHT22;30249;51.426;0.102;2022-07-30T10:32:59;25.10;76.10
42819;DHT22;30249;51.426;0.102;2022-07-30T10:35:30;25.20;76.50
42819;DHT22;30249;51.426;0.102;2022-07-30T10:38:08;25.20;76.00
42819;DHT22;30249;51.426;0.102;2022-07-30T10:40:47;25.30;75.60
42819;DHT22;30249;51.426;0.102;2022-07-30T10:46:15;25.50;75.80
42819;DHT22;30249;51.426;0.102;2022-07-30T10:48:49;25.70;75.70
42819;DHT22;30249;51.426;0.102;2022-07-30T10:51:20;25.70;75.70
42819;DHT22;30249;51.426;0.102;2022-07-30T10:54:01;25.80;74.70
42819;DHT22;30249;51.426;0.102;2022-07-30T10:56:28;25.80;74.50
42819;DHT22;30249;51.426;0.102;2022-07-30T11:04:21;26.10;75.10
42819;DHT22;30249;51.426;0.102;2022-07-30T11:09:43;26.20;74.00
42819;DHT22;30249;51.426;0.102;2022-07-30T11:15:11;26.60;73.40
42819;DHT22;30249;51.426;0.102;2022-07-30T11:20:27;26.70;72.40
42819;DHT22;30249;51.426;0.102;2022-07-30T11:23:08;26.70;72.60
42819;DHT22;30249;51.426;0.102;2022-07-30T11:25:40;26.80;72.40
42819;DHT22;30249;51.426;0.102;2022-07-30T11:28:36;26.70;72.90
42819;DHT22;30249;51.426;0.102;2022-07-30T11:37:07;26.80;72.00
42819;DHT22;30249;51.426;0.102;2022-07-30T11:42:24;27.00;72.00
42819;DHT22;30249;51.426;0.102;2022-07-30T11:47:44;26.80;71.40
42819;DHT22;30249;51.426;0.102;2022-07-30T11:50:26;26.70;71.10
42819;DHT22;30249;51.426;0.102;2022-07-30T11:52:56;26.60;71.90
42819;DHT22;30249;51.426;0.102;2022-07-30T11:57:55;26.60;72.30
42819;DHT22;30249;51.426;0.102;2022-07-30T12:00:23;26.60;72.00
42819;DHT22;30249;51.426;0.102;2022-07-30T12:02:51;26.60;72.40
42819;DHT22;30249;51.426;0.102;2022-07-30T12:05:23;26.70;72.10
42819;DHT22;30249;51.426;0.102;2022-07-30T12:07:58;26.60;72.00
42819;DHT22;30249;51.426;0.102;2022-07-30T12:10:26;26.60;72.10
42819;DHT22;30249;51.426;0.102;2022-07-30T12:13:05;26.70;72.20
42819;DHT22;30249;51.426;0.102;2022-07-30T12:15:35;26.60;72.00
42819;DHT22;30249;51.426;0.102;2022-07-30T12:18:03;26.60;72.00
42819;DHT22;30249;51.426;0.102;2022-07-30T12:21:02;26.40;72.80
42819;DHT22;30249;51.426;0.102;2022-07-30T12:23:41;26.30;71.60
42819;DHT22;30249;51.426;0.102;2022-07-30T12:26:20;26.70;71.80
42819;DHT22;30249;51.426;0.102;2022-07-30T12:28:48;26.10;71.70
42819;DHT22;30249;51.426;0.102;2022-07-30T12:31:16;26.00;71.40
42819;DHT22;30249;51.426;0.102;2022-07-30T12:33:44;25.90;71.40
42819;DHT22;30249;51.426;0.102;2022-07-30T12:36:32;25.90;71.40
42819;DHT22;30249;51.426;0.102;2022-07-30T12:39:01;25.90;71.50
42819;DHT22;30249;51.426;0.102;2022-07-30T12:41:45;26.00;71.50
42819;DHT22;30249;51.426;0.102;2022-07-30T12:44:33;26.10;71.30
42819;DHT22;30249;51.426;0.102;2022-07-30T12:47:01;26.10;71.00
42819;DHT22;30249;51.426;0.102;2022-07-30T12:49:33;26.30;71.20
42819;DHT22;30249;51.426;0.102;2022-07-30T12:54:57;26.60;70.40
42819;DHT22;30249;51.426;0.102;2022-07-30T12:57:27;26.70;70.30
42819;DHT22;30249;51.426;0.102;2022-07-30T13:00:04;26.80;69.90
42819;DHT22;30249;51.426;0.102;2022-07-30T13:02:33;27.00;70.00
42819;DHT22;30249;51.426;0.102;2022-07-30T13:05:05;27.30;70.00
42819;DHT22;30249;51.426;0.102;2022-07-30T13:07:57;27.50;69.70
42819;DHT22;30249;51.426;0.102;2022-07-30T13:10:25;27.70;69.40
42819;DHT22;30249;51.426;0.102;2022-07-30T13:12:57;27.90;69.20
42819;DHT22;30249;51.426;0.102;2022-07-30T13:15:25;27.90;69.20
42819;DHT22;30249;51.426;0.102;2022-07-30T13:17:53;27.90;69.20
42819;DHT22;30249;51.426;0.102;2022-07-30T13:20:21;28.00;68.40
42819;DHT22;30249;51.426;0.102;2022-07-30T13:22:49;28.10;68.90
42819;DHT22;30249;51.426;0.102;2022-07-30T13:25:17;28.20;68.70
42819;DHT22;30249;51.426;0.102;2022-07-30T13:27:45;28.20;68.30
42819;DHT22;30249;51.426;0.102;2022-07-30T13:30:19;28.30;68.10
42819;DHT22;30249;51.426;0.102;2022-07-30T13:32:47;28.40;68.10
42819;DHT22;30249;51.426;0.102;2022-07-30T13:35:14;28.50;67.80
42819;DHT22;30249;51.426;0.102;2022-07-30T13:37:42;28.70;67.50
42819;DHT22;30249;51.426;0.102;2022-07-30T13:40:09;29.00;67.50
42819;DHT22;30249;51.426;0.102;2022-07-30T13:42:37;29.30;67.00
42819;DHT22;30249;51.426;0.102;2022-07-30T13:45:05;29.50;66.50
42819;DHT22;30249;51.426;0.102;2022-07-30T13:47:33;29.60;66.60
42819;DHT22;30249;51.426;0.102;2022-07-30T13:50:01;29.70;65.70
42819;DHT22;30249;51.426;0.102;2022-07-30T13:52:30;30.10;66.20
42819;DHT22;30249;51.426;0.102;2022-07-30T13:54:58;30.50;65.80
42819;DHT22;30249;51.426;0.102;2022-07-30T13:57:26;30.90;65.00
42819;DHT22;30249;51.426;0.102;2022-07-30T13:59:55;31.10;64.30
42819;DHT22;30249;51.426;0.102;2022-07-30T14:02:23;31.20;63.90
42819;DHT22;30249;51.426;0.102;2022-07-30T14:04:55;31.40;64.10
42819;DHT22;30249;51.426;0.102;2022-07-30T14:07:23;30.60;63.20
42819;DHT22;30249;51.426;0.102;2022-07-30T14:09:54;31.80;62.90
42819;DHT22;30249;51.426;0.102;2022-07-30T14:12:22;32.00;64.10
42819;DHT22;30249;51.426;0.102;2022-07-30T14:14:49;31.90;63.50
42819;DHT22;30249;51.426;0.102;2022-07-30T14:17:17;31.80;63.00
42819;DHT22;30249;51.426;0.102;2022-07-30T14:19:45;31.80;62.70
42819;DHT22;30249;51.426;0.102;2022-07-30T14:22:13;31.60;63.20
42819;DHT22;30249;51.426;0.102;2022-07-30T14:24:41;31.60;63.30
42819;DHT22;30249;51.426;0.102;2022-07-30T14:27:10;31.50;62.60
42819;DHT22;30249;51.426;0.102;2022-07-30T14:29:38;31.60;62.90
42819;DHT22;30249;51.426;0.102;2022-07-30T14:32:06;31.70;63.10
42819;DHT22;30249;51.426;0.102;2022-07-30T14:34:33;32.00;62.70
42819;DHT22;30249;51.426;0.102;2022-07-30T14:37:01;32.10;62.60
42819;DHT22;30249;51.426;0.102;2022-07-30T14:39:29;31.90;62.60
42819;DHT22;30249;51.426;0.102;2022-07-30T14:41:57;31.50;63.00
42819;DHT22;30249;51.426;0.102;2022-07-30T14:44:24;31.30;63.30
42819;DHT22;30249;51.426;0.102;2022-07-30T14:46:53;31.00;63.60
42819;DHT22;30249;51.426;0.102;2022-07-30T14:49:20;30.70;64.00
42819;DHT22;30249;51.426;0.102;2022-07-30T14:51:50;30.60;64.20
42819;DHT22;30249;51.426;0.102;2022-07-30T14:54:17;30.40;64.40
42819;DHT22;30249;51.426;0.102;2022-07-30T14:56:46;30.40;64.50
42819;DHT22;30249;51.426;0.102;2022-07-30T14:59:13;30.30;64.60
42819;DHT22;30249;51.426;0.102;2022-07-30T15:01:41;30.20;65.00
42819;DHT22;30249;51.426;0.102;2022-07-30T15:04:10;30.10;65.00
42819;DHT22;30249;51.426;0.102;2022-07-30T15:06:39;30.20;64.80
42819;DHT22;30249;51.426;0.102;2022-07-30T15:09:08;30.30;65.00
42819;DHT22;30249;51.426;0.102;2022-07-30T15:11:35;30.30;65.70
42819;DHT22;30249;51.426;0.102;2022-07-30T15:14:23;30.10;64.90
42819;DHT22;30249;51.426;0.102;2022-07-30T15:16:54;30.20;65.00
42819;DHT22;30249;51.426;0.102;2022-07-30T15:19:30;30.20;65.20
42819;DHT22;30249;51.426;0.102;2022-07-30T15:21:59;30.20;65.40
42819;DHT22;30249;51.426;0.102;2022-07-30T15:24:29;30.00;65.60
42819;DHT22;30249;51.426;0.102;2022-07-30T15:26:57;29.90;65.80
42819;DHT22;30249;51.426;0.102;2022-07-30T15:29:25;29.60;66.30
42819;DHT22;30249;51.426;0.102;2022-07-30T15:31:55;29.30;66.50
42819;DHT22;30249;51.426;0.102;2022-07-30T15:34:23;29.10;67.10
42819;DHT22;30249;51.426;0.102;2022-07-30T15:36:51;28.90;67.40
42819;DHT22;30249;51.426;0.102;2022-07-30T15:39:19;28.60;68.00
42819;DHT22;30249;51.426;0.102;2022-07-30T15:41:47;28.40;68.60
42819;DHT22;30249;51.426;0.102;2022-07-30T15:44:18;28.20;69.10
42819;DHT22;30249;51.426;0.102;2022-07-30T15:46:47;28.00;69.70
42819;DHT22;30249;51.426;0.102;2022-07-30T15:49:15;27.80;70.00
42819;DHT22;30249;51.426;0.102;2022-07-30T15:51:43;27.70;70.40
42819;DHT22;30249;51.426;0.102;2022-07-30T15:54:15;27.80;71.00
42819;DHT22;30249;51.426;0.102;2022-07-30T15:56:52;27.70;71.40
42819;DHT22;30249;51.426;0.102;2022-07-30T15:59:27;27.60;71.50
42819;DHT22;30249;51.426;0.102;2022-07-30T16:01:55;27.60;71.80
42819;DHT22;30249;51.426;0.102;2022-07-30T16:04:23;27.60;72.10
42819;DHT22;30249;51.426;0.102;2022-07-30T16:07:01;27.50;72.40
42819;DHT22;30249;51.426;0.102;2022-07-30T16:09:30;27.40;72.60
42819;DHT22;30249;51.426;0.102;2022-07-30T16:12:00;27.30;72.80
42819;DHT22;30249;51.426;0.102;2022-07-30T16:14:29;27.20;73.30
42819;DHT22;30249;51.426;0.102;2022-07-30T16:16:57;27.10;73.70
42819;DHT22;30249;51.426;0.102;2022-07-30T16:19:31;27.00;74.50
42819;DHT22;30249;51.426;0.102;2022-07-30T16:21:59;26.90;74.50
42819;DHT22;30249;51.426;0.102;2022-07-30T16:24:28;26.80;74.70
42819;DHT22;30249;51.426;0.102;2022-07-30T16:26:56;26.80;74.60
42819;DHT22;30249;51.426;0.102;2022-07-30T16:29:23;26.90;74.40
42819;DHT22;30249;51.426;0.102;2022-07-30T16:31:52;26.90;74.70
42819;DHT22;30249;51.426;0.102;2022-07-30T16:34:21;26.90;74.60
42819;DHT22;30249;51.426;0.102;2022-07-30T16:36:53;26.90;74.60
42819;DHT22;30249;51.426;0.102;2022-07-30T16:39:20;27.00;74.70
42819;DHT22;30249;51.426;0.102;2022-07-30T16:41:49;27.00;74.70
42819;DHT22;30249;51.426;0.102;2022-07-30T16:44:16;27.10;74.90
42819;DHT22;30249;51.426;0.102;2022-07-30T16:46:44;27.10;75.00
42819;DHT22;30249;51.426;0.102;2022-07-30T16:49:11;27.10;74.90